Scroll down
FLIGHT INFORMATION
KLM Royal Dutch Airlines

KLM128

At Arrival Gate

EGKK
 EGCC
DATE: 2020-01-28
GATE:  -
GATE DEPARTURE: 14:44
TAKEOFF: 14:50
DATE: 2020-01-28
GATE:  -
LANDING: 15:38
GATE ARRIVAL: 15:50
FLIGHT DATA
Crew: -HIDDEN-
Speed: 396 kts Altitude: 25000 ft
Stage Length: 153 nm
Route: 
Block Time: 1.1 Flight Time: 0.8
Fuel Used: 5468 LB
TRACK DATA
50000 FT1000 KT
AIRCRAFT INFORMATION
Aircraft Type: B738BW
Registration: PH-BCA
SELCAL:  MSN/LN: 37820 / 3480
Operator: KLM ROYAL DUTCH AIRLINES
Flights: 2 Block Time: 2.4 Flight Time: 1.7
Fuel Used: 12026 LB
  • DEPARTURE INFORMATION
    Date: 2020-01-28
    Airport: EGKK
    Gate:  -
    Gate Departure: 14:44
    Takeoff: 14:50
    ARRIVAL INFORMATION
    Date: 2020-01-28
    Airport: EGCC
    Gate:  -
    Landing: 15:38
    Gate Arrival: 15:50
  • FLIGHT DATA
    Crew: -HIDDEN-
    Speed: 396 kts Altitude: 25000 ft
    Stage Length: 83 nm
    Route: 
    Block Time: 1.1 Flight Time: 0.8
    Fuel Used: 5468 LB
  • AIRCRAFT INFORMATION
    Aircraft Type: B738BW
    Registration: PH-BCA
    SELCAL:  MSN/LN: 37820 / 3480
    Operator: KLM Royal Dutch Airlines
    Flights: 2 Block Time: 2.4 Flight Time: 1.7
    Fuel Used: 12026 LB

DATALINK LOG | Newest first | Current as of: 2020-09-30 09:38:37
LABEL SEQUENCE CONTENT Dn/Up
QD501515:50 7.7▼ Dn
QC394915:38▼ Dn
462641/OV TNT /TM 1525 /FL150 /TP B738 /SK BKN /WX SN VIS CLR /TA -13 /WV 280/25 /RM VFR ON TOP▼ Dn
2U2327EGCC 221920Z AUTO 23006KT 9999 FEW022/// OVC033/// //////CB 07/05 Q0989 NOSIG▲ Up
2S2327EGCC▼ Dn
GA0318ADVANCED GATE ASSIGNMENTS NOT YET AVAILABLE AT THIS AIRPORT▲ Up
GR0216EGCC --:-- MAAS 08 YP/UM 00/02▼ Dn
QB501014:50▼ Dn
QA441814:44 13▼ Dn
A32746CLEARED TO EGCC VIA TIGE1X LAM N57 WELIN T420 TNT DAYN2A. SQUAWK 4145.▲ Up
B32612EGKK EGCC KLM128 I ▼ Dn
A32654CLEARED TO EGCC VIA TIGE1X LAM N57 WELIN T420 TNT DAYN2A. SQUAWK 1612.▲ Up
B32612EGKK EGCC KLM128 I ▼ Dn
A72309CLEARANCE AVAIL WITHIN 0:25 OF EDT▲ Up
B32142EGKK EGCC KLM128 I ▼ Dn
A72006CLEARANCE AVAIL WITHIN 0:25 OF EDT▲ Up
B31721EGKK EGCC KLM128 I ▼ Dn
A72341CLEARANCE AVAIL WITHIN 0:25 OF EDT▲ Up
B31121EGKK EGCC KLM128 I ▼ Dn
2U1036EGKK 221920Z 22005KT 9999 FEW038 07/06 Q0992▲ Up
2S1036EGKK▼ Dn
Q02038[LINK ACK]▲ Up
Q00811[LINK TEST]▼ Dn


AIRCRAFT HISTORY
FLIGHT DATE FLIGHT NO. ORIGIN DESTINATION ROUTE BLOCK TIME FLIGHT TIME FUEL USED (LB) PILOT
2020-01-28KLM128EGKK EGCC 1.10.85468-HIDDEN-
2019-12-11KLM1958EHAM EGKK 1.20.96558Charles Harris